Terminal Aerodrome Forecast
Issued by NWS Shreveport, LA

Home | Current Version | Previous Version | Text Only | Print | Product List | Glossary On
Versions: 1 2 3 4 5 6 7 8 9 10 11 12 13
000
FTUS44 KSHV 270500
TAFELD
TAF
KELD 270524Z 2706/2806 00000KT P6SM SKC
      TEMPO 2708/2712 3SM BR
     FM271200 07006KT P6SM SCT250
     FM280000 13004KT P6SM FEW080 SCT250=

USA.gov is the U.S. government's official web portal to all federal, state and local government web resources and services.